sensor_id;sensor_type;location;lat;lon;timestamp;P1;durP1;ratioP1;P2;durP2;ratioP2
22336;SDS011;14992;50.844;4.418;2023-11-18T00:01:38;16.67;;;8.60;;
22336;SDS011;14992;50.844;4.418;2023-11-18T00:04:08;14.02;;;7.35;;
22336;SDS011;14992;50.844;4.418;2023-11-18T00:06:44;12.18;;;7.28;;
22336;SDS011;14992;50.844;4.418;2023-11-18T00:09:13;16.17;;;8.55;;
22336;SDS011;14992;50.844;4.418;2023-11-18T00:11:42;15.07;;;7.43;;
22336;SDS011;14992;50.844;4.418;2023-11-18T00:14:11;15.25;;;7.53;;
22336;SDS011;14992;50.844;4.418;2023-11-18T00:16:40;13.05;;;8.10;;
22336;SDS011;14992;50.844;4.418;2023-11-18T00:19:09;14.73;;;7.93;;
22336;SDS011;14992;50.844;4.418;2023-11-18T00:21:38;17.02;;;7.18;;
22336;SDS011;14992;50.844;4.418;2023-11-18T00:24:13;20.10;;;9.27;;
22336;SDS011;14992;50.844;4.418;2023-11-18T00:26:41;24.67;;;11.43;;
22336;SDS011;14992;50.844;4.418;2023-11-18T00:29:10;19.95;;;8.05;;
22336;SDS011;14992;50.844;4.418;2023-11-18T00:31:39;15.32;;;8.30;;
22336;SDS011;14992;50.844;4.418;2023-11-18T00:34:08;16.50;;;7.53;;
22336;SDS011;14992;50.844;4.418;2023-11-18T00:36:37;21.58;;;9.00;;
22336;SDS011;14992;50.844;4.418;2023-11-18T00:39:06;17.50;;;8.32;;
22336;SDS011;14992;50.844;4.418;2023-11-18T00:41:36;17.42;;;8.15;;
22336;SDS011;14992;50.844;4.418;2023-11-18T00:44:05;17.52;;;8.32;;
22336;SDS011;14992;50.844;4.418;2023-11-18T00:46:35;20.38;;;8.18;;
22336;SDS011;14992;50.844;4.418;2023-11-18T00:49:04;20.88;;;9.40;;
22336;SDS011;14992;50.844;4.418;2023-11-18T00:51:33;18.85;;;8.13;;
22336;SDS011;14992;50.844;4.418;2023-11-18T00:54:04;14.63;;;7.63;;
22336;SDS011;14992;50.844;4.418;2023-11-18T00:56:33;18.77;;;8.93;;
22336;SDS011;14992;50.844;4.418;2023-11-18T00:59:03;14.52;;;7.32;;
22336;SDS011;14992;50.844;4.418;2023-11-18T01:01:33;18.77;;;8.68;;
22336;SDS011;14992;50.844;4.418;2023-11-18T01:04:04;17.05;;;7.53;;
22336;SDS011;14992;50.844;4.418;2023-11-18T01:06:32;17.13;;;7.45;;
22336;SDS011;14992;50.844;4.418;2023-11-18T01:09:01;14.18;;;7.38;;
22336;SDS011;14992;50.844;4.418;2023-11-18T01:11:30;18.55;;;7.35;;
22336;SDS011;14992;50.844;4.418;2023-11-18T01:13:59;18.27;;;6.97;;
22336;SDS011;14992;50.844;4.418;2023-11-18T01:16:30;18.17;;;7.47;;
22336;SDS011;14992;50.844;4.418;2023-11-18T01:18:59;10.93;;;6.15;;
22336;SDS011;14992;50.844;4.418;2023-11-18T01:21:28;13.55;;;6.07;;
22336;SDS011;14992;50.844;4.418;2023-11-18T01:23:57;14.20;;;6.32;;
22336;SDS011;14992;50.844;4.418;2023-11-18T01:26:25;12.68;;;6.55;;
22336;SDS011;14992;50.844;4.418;2023-11-18T01:28:54;16.52;;;5.28;;
22336;SDS011;14992;50.844;4.418;2023-11-18T01:31:23;9.38;;;5.47;;
22336;SDS011;14992;50.844;4.418;2023-11-18T01:33:59;12.40;;;4.95;;
22336;SDS011;14992;50.844;4.418;2023-11-18T01:36:28;8.15;;;4.30;;
22336;SDS011;14992;50.844;4.418;2023-11-18T01:38:57;10.60;;;4.30;;
22336;SDS011;14992;50.844;4.418;2023-11-18T01:41:26;6.60;;;3.78;;
22336;SDS011;14992;50.844;4.418;2023-11-18T01:43:59;6.53;;;3.33;;
22336;SDS011;14992;50.844;4.418;2023-11-18T01:46:29;9.40;;;4.10;;
22336;SDS011;14992;50.844;4.418;2023-11-18T01:48:59;10.50;;;3.47;;
22336;SDS011;14992;50.844;4.418;2023-11-18T01:51:28;11.73;;;4.00;;
22336;SDS011;14992;50.844;4.418;2023-11-18T01:53:57;9.50;;;3.88;;
22336;SDS011;14992;50.844;4.418;2023-11-18T01:56:28;9.25;;;3.45;;
22336;SDS011;14992;50.844;4.418;2023-11-18T01:58:58;13.05;;;3.85;;
22336;SDS011;14992;50.844;4.418;2023-11-18T02:01:27;6.50;;;3.85;;
22336;SDS011;14992;50.844;4.418;2023-11-18T02:03:59;6.95;;;3.05;;
22336;SDS011;14992;50.844;4.418;2023-11-18T02:06:28;6.30;;;3.08;;
22336;SDS011;14992;50.844;4.418;2023-11-18T02:08:57;6.47;;;3.03;;
22336;SDS011;14992;50.844;4.418;2023-11-18T02:11:28;5.25;;;2.63;;
22336;SDS011;14992;50.844;4.418;2023-11-18T02:14:01;9.43;;;3.35;;
22336;SDS011;14992;50.844;4.418;2023-11-18T02:16:34;10.20;;;3.45;;
22336;SDS011;14992;50.844;4.418;2023-11-18T02:19:05;6.65;;;3.50;;
22336;SDS011;14992;50.844;4.418;2023-11-18T02:21:44;4.43;;;3.28;;
22336;SDS011;14992;50.844;4.418;2023-11-18T02:24:24;4.97;;;3.30;;
22336;SDS011;14992;50.844;4.418;2023-11-18T02:26:56;6.38;;;3.00;;
22336;SDS011;14992;50.844;4.418;2023-11-18T02:29:25;5.82;;;3.15;;
22336;SDS011;14992;50.844;4.418;2023-11-18T02:31:58;11.50;;;3.78;;
22336;SDS011;14992;50.844;4.418;2023-11-18T02:34:32;7.93;;;3.20;;
22336;SDS011;14992;50.844;4.418;2023-11-18T02:37:03;6.75;;;3.00;;
22336;SDS011;14992;50.844;4.418;2023-11-18T02:39:35;8.77;;;2.83;;
22336;SDS011;14992;50.844;4.418;2023-11-18T02:42:09;6.55;;;3.47;;
22336;SDS011;14992;50.844;4.418;2023-11-18T02:44:40;7.78;;;3.05;;
22336;SDS011;14992;50.844;4.418;2023-11-18T02:47:11;6.22;;;2.80;;
22336;SDS011;14992;50.844;4.418;2023-11-18T02:49:40;7.03;;;3.15;;
22336;SDS011;14992;50.844;4.418;2023-11-18T02:52:09;5.18;;;2.90;;
22336;SDS011;14992;50.844;4.418;2023-11-18T02:54:37;5.80;;;3.25;;
22336;SDS011;14992;50.844;4.418;2023-11-18T02:57:06;9.25;;;3.00;;
22336;SDS011;14992;50.844;4.418;2023-11-18T02:59:37;6.50;;;2.53;;
22336;SDS011;14992;50.844;4.418;2023-11-18T03:02:06;7.53;;;2.53;;
22336;SDS011;14992;50.844;4.418;2023-11-18T03:04:35;6.65;;;2.92;;
22336;SDS011;14992;50.844;4.418;2023-11-18T03:07:03;6.95;;;2.85;;
22336;SDS011;14992;50.844;4.418;2023-11-18T03:09:35;11.32;;;2.78;;
22336;SDS011;14992;50.844;4.418;2023-11-18T03:12:06;9.93;;;2.75;;
22336;SDS011;14992;50.844;4.418;2023-11-18T03:14:37;7.70;;;2.15;;
22336;SDS011;14992;50.844;4.418;2023-11-18T03:17:05;6.50;;;2.30;;
22336;SDS011;14992;50.844;4.418;2023-11-18T03:19:36;7.97;;;3.22;;
22336;SDS011;14992;50.844;4.418;2023-11-18T03:22:06;7.53;;;2.50;;
22336;SDS011;14992;50.844;4.418;2023-11-18T03:24:35;5.70;;;2.95;;
22336;SDS011;14992;50.844;4.418;2023-11-18T03:27:03;6.07;;;2.70;;
22336;SDS011;14992;50.844;4.418;2023-11-18T03:29:32;9.90;;;3.08;;
22336;SDS011;14992;50.844;4.418;2023-11-18T03:32:02;5.15;;;2.60;;
22336;SDS011;14992;50.844;4.418;2023-11-18T03:34:32;5.55;;;2.70;;
22336;SDS011;14992;50.844;4.418;2023-11-18T03:37:01;8.20;;;2.88;;
22336;SDS011;14992;50.844;4.418;2023-11-18T03:39:30;15.80;;;2.60;;
22336;SDS011;14992;50.844;4.418;2023-11-18T03:41:58;8.10;;;2.80;;
22336;SDS011;14992;50.844;4.418;2023-11-18T03:44:27;6.57;;;2.10;;
22336;SDS011;14992;50.844;4.418;2023-11-18T03:46:56;7.50;;;2.30;;
22336;SDS011;14992;50.844;4.418;2023-11-18T03:49:26;5.28;;;2.03;;
22336;SDS011;14992;50.844;4.418;2023-11-18T03:51:55;4.72;;;2.20;;
22336;SDS011;14992;50.844;4.418;2023-11-18T03:54:24;6.80;;;2.90;;
22336;SDS011;14992;50.844;4.418;2023-11-18T03:56:52;4.38;;;2.42;;
22336;SDS011;14992;50.844;4.418;2023-11-18T03:59:21;5.38;;;2.53;;
22336;SDS011;14992;50.844;4.418;2023-11-18T04:01:51;5.15;;;1.73;;
22336;SDS011;14992;50.844;4.418;2023-11-18T04:04:20;8.43;;;2.20;;
22336;SDS011;14992;50.844;4.418;2023-11-18T04:06:50;4.82;;;1.67;;
22336;SDS011;14992;50.844;4.418;2023-11-18T04:09:19;6.55;;;1.70;;
22336;SDS011;14992;50.844;4.418;2023-11-18T04:11:48;6.93;;;1.58;;
22336;SDS011;14992;50.844;4.418;2023-11-18T04:14:16;5.70;;;1.70;;
22336;SDS011;14992;50.844;4.418;2023-11-18T04:16:45;7.90;;;2.10;;
22336;SDS011;14992;50.844;4.418;2023-11-18T04:19:14;5.68;;;2.10;;
22336;SDS011;14992;50.844;4.418;2023-11-18T04:21:43;7.60;;;2.33;;
22336;SDS011;14992;50.844;4.418;2023-11-18T04:24:16;10.52;;;2.45;;
22336;SDS011;14992;50.844;4.418;2023-11-18T04:26:45;4.38;;;1.55;;
22336;SDS011;14992;50.844;4.418;2023-11-18T04:29:16;5.57;;;1.75;;
22336;SDS011;14992;50.844;4.418;2023-11-18T04:31:45;4.13;;;1.42;;
22336;SDS011;14992;50.844;4.418;2023-11-18T04:34:14;6.47;;;1.50;;
22336;SDS011;14992;50.844;4.418;2023-11-18T04:36:43;2.95;;;1.23;;
22336;SDS011;14992;50.844;4.418;2023-11-18T04:39:12;3.83;;;1.27;;
22336;SDS011;14992;50.844;4.418;2023-11-18T04:41:44;4.00;;;2.03;;
22336;SDS011;14992;50.844;4.418;2023-11-18T04:44:13;6.35;;;1.98;;
22336;SDS011;14992;50.844;4.418;2023-11-18T04:46:43;5.10;;;1.52;;
22336;SDS011;14992;50.844;4.418;2023-11-18T04:49:12;4.43;;;1.70;;
22336;SDS011;14992;50.844;4.418;2023-11-18T04:51:41;4.88;;;1.73;;
22336;SDS011;14992;50.844;4.418;2023-11-18T04:54:10;7.90;;;2.38;;
22336;SDS011;14992;50.844;4.418;2023-11-18T04:56:39;3.58;;;1.48;;
22336;SDS011;14992;50.844;4.418;2023-11-18T04:59:09;4.25;;;1.60;;
22336;SDS011;14992;50.844;4.418;2023-11-18T05:01:37;6.70;;;2.33;;
22336;SDS011;14992;50.844;4.418;2023-11-18T05:04:06;5.40;;;1.67;;
22336;SDS011;14992;50.844;4.418;2023-11-18T05:06:35;5.75;;;1.63;;
22336;SDS011;14992;50.844;4.418;2023-11-18T05:09:04;8.23;;;2.15;;
22336;SDS011;14992;50.844;4.418;2023-11-18T05:11:34;4.95;;;1.73;;
22336;SDS011;14992;50.844;4.418;2023-11-18T05:14:03;7.95;;;1.85;;
22336;SDS011;14992;50.844;4.418;2023-11-18T05:16:35;2.50;;;1.20;;
22336;SDS011;14992;50.844;4.418;2023-11-18T05:19:04;5.40;;;2.10;;
22336;SDS011;14992;50.844;4.418;2023-11-18T05:21:34;5.03;;;1.38;;
22336;SDS011;14992;50.844;4.418;2023-11-18T05:24:03;5.45;;;1.20;;
22336;SDS011;14992;50.844;4.418;2023-11-18T05:26:32;4.15;;;1.70;;
22336;SDS011;14992;50.844;4.418;2023-11-18T05:29:02;5.20;;;2.10;;
22336;SDS011;14992;50.844;4.418;2023-11-18T05:31:31;6.30;;;1.85;;
22336;SDS011;14992;50.844;4.418;2023-11-18T05:34:02;5.30;;;1.73;;
22336;SDS011;14992;50.844;4.418;2023-11-18T05:36:31;5.40;;;2.45;;
22336;SDS011;14992;50.844;4.418;2023-11-18T05:39:04;6.47;;;2.83;;
22336;SDS011;14992;50.844;4.418;2023-11-18T05:41:34;4.03;;;1.65;;
22336;SDS011;14992;50.844;4.418;2023-11-18T05:44:06;5.53;;;2.45;;
22336;SDS011;14992;50.844;4.418;2023-11-18T05:46:36;9.27;;;2.28;;
22336;SDS011;14992;50.844;4.418;2023-11-18T05:49:07;6.07;;;2.42;;
22336;SDS011;14992;50.844;4.418;2023-11-18T05:51:36;7.13;;;1.77;;
22336;SDS011;14992;50.844;4.418;2023-11-18T05:54:05;9.88;;;1.90;;
22336;SDS011;14992;50.844;4.418;2023-11-18T05:56:33;3.85;;;1.75;;
22336;SDS011;14992;50.844;4.418;2023-11-18T05:59:03;6.70;;;2.63;;
22336;SDS011;14992;50.844;4.418;2023-11-18T06:01:32;5.45;;;2.03;;
22336;SDS011;14992;50.844;4.418;2023-11-18T06:04:01;6.25;;;2.03;;
22336;SDS011;14992;50.844;4.418;2023-11-18T06:06:31;5.13;;;2.10;;
22336;SDS011;14992;50.844;4.418;2023-11-18T06:09:00;7.13;;;2.08;;
22336;SDS011;14992;50.844;4.418;2023-11-18T06:11:32;6.40;;;1.70;;
22336;SDS011;14992;50.844;4.418;2023-11-18T06:14:01;8.57;;;1.98;;
22336;SDS011;14992;50.844;4.418;2023-11-18T06:16:35;3.30;;;1.77;;
22336;SDS011;14992;50.844;4.418;2023-11-18T06:19:08;6.55;;;1.65;;
22336;SDS011;14992;50.844;4.418;2023-11-18T06:21:38;5.30;;;2.22;;
22336;SDS011;14992;50.844;4.418;2023-11-18T06:24:07;6.07;;;2.42;;
22336;SDS011;14992;50.844;4.418;2023-11-18T06:26:38;8.18;;;2.35;;
22336;SDS011;14992;50.844;4.418;2023-11-18T06:29:06;5.20;;;1.92;;
22336;SDS011;14992;50.844;4.418;2023-11-18T06:31:35;9.93;;;1.83;;
22336;SDS011;14992;50.844;4.418;2023-11-18T06:34:04;6.78;;;2.10;;
22336;SDS011;14992;50.844;4.418;2023-11-18T06:36:33;3.30;;;1.52;;
22336;SDS011;14992;50.844;4.418;2023-11-18T06:39:03;7.20;;;2.25;;
22336;SDS011;14992;50.844;4.418;2023-11-18T06:41:33;6.80;;;2.10;;
22336;SDS011;14992;50.844;4.418;2023-11-18T06:44:05;3.75;;;1.40;;
22336;SDS011;14992;50.844;4.418;2023-11-18T06:46:39;8.18;;;1.77;;
22336;SDS011;14992;50.844;4.418;2023-11-18T06:49:08;5.15;;;1.88;;
22336;SDS011;14992;50.844;4.418;2023-11-18T06:51:42;4.95;;;1.50;;
22336;SDS011;14992;50.844;4.418;2023-11-18T06:54:12;6.13;;;2.22;;
22336;SDS011;14992;50.844;4.418;2023-11-18T06:56:41;6.03;;;2.10;;
22336;SDS011;14992;50.844;4.418;2023-11-18T06:59:12;7.65;;;1.33;;
22336;SDS011;14992;50.844;4.418;2023-11-18T07:01:43;4.93;;;1.98;;
22336;SDS011;14992;50.844;4.418;2023-11-18T07:04:13;7.35;;;1.67;;
22336;SDS011;14992;50.844;4.418;2023-11-18T07:06:42;3.08;;;1.33;;
22336;SDS011;14992;50.844;4.418;2023-11-18T07:09:13;4.32;;;1.63;;
22336;SDS011;14992;50.844;4.418;2023-11-18T07:11:45;3.63;;;2.17;;
22336;SDS011;14992;50.844;4.418;2023-11-18T07:14:15;6.07;;;1.58;;
22336;SDS011;14992;50.844;4.418;2023-11-18T07:16:44;3.55;;;1.35;;
22336;SDS011;14992;50.844;4.418;2023-11-18T07:19:13;5.20;;;1.73;;
22336;SDS011;14992;50.844;4.418;2023-11-18T07:21:48;6.43;;;2.08;;
22336;SDS011;14992;50.844;4.418;2023-11-18T07:24:19;5.43;;;2.28;;
22336;SDS011;14992;50.844;4.418;2023-11-18T07:26:48;6.90;;;1.85;;
22336;SDS011;14992;50.844;4.418;2023-11-18T07:29:18;3.75;;;2.03;;
22336;SDS011;14992;50.844;4.418;2023-11-18T07:31:47;5.40;;;2.03;;
22336;SDS011;14992;50.844;4.418;2023-11-18T07:34:16;5.00;;;1.98;;
22336;SDS011;14992;50.844;4.418;2023-11-18T07:36:45;4.03;;;2.25;;
22336;SDS011;14992;50.844;4.418;2023-11-18T07:39:15;5.43;;;2.17;;
22336;SDS011;14992;50.844;4.418;2023-11-18T07:41:52;5.38;;;2.30;;
22336;SDS011;14992;50.844;4.418;2023-11-18T07:44:27;6.00;;;2.25;;
22336;SDS011;14992;50.844;4.418;2023-11-18T07:46:59;4.70;;;2.97;;
22336;SDS011;14992;50.844;4.418;2023-11-18T07:49:28;5.10;;;2.58;;
22336;SDS011;14992;50.844;4.418;2023-11-18T07:51:58;7.70;;;2.60;;
22336;SDS011;14992;50.844;4.418;2023-11-18T07:54:27;4.82;;;2.70;;
22336;SDS011;14992;50.844;4.418;2023-11-18T07:56:57;8.52;;;3.13;;
22336;SDS011;14992;50.844;4.418;2023-11-18T07:59:26;10.27;;;3.30;;
22336;SDS011;14992;50.844;4.418;2023-11-18T08:01:56;6.97;;;3.42;;
22336;SDS011;14992;50.844;4.418;2023-11-18T08:04:25;5.38;;;2.83;;
22336;SDS011;14992;50.844;4.418;2023-11-18T08:06:53;6.43;;;2.65;;
22336;SDS011;14992;50.844;4.418;2023-11-18T08:09:22;8.15;;;3.55;;
22336;SDS011;14992;50.844;4.418;2023-11-18T08:11:52;5.53;;;2.75;;
22336;SDS011;14992;50.844;4.418;2023-11-18T08:14:24;7.20;;;3.08;;
22336;SDS011;14992;50.844;4.418;2023-11-18T08:16:53;8.07;;;3.03;;
22336;SDS011;14992;50.844;4.418;2023-11-18T08:19:23;6.85;;;2.95;;
22336;SDS011;14992;50.844;4.418;2023-11-18T08:21:52;9.80;;;3.60;;
22336;SDS011;14992;50.844;4.418;2023-11-18T08:24:21;7.82;;;3.30;;
22336;SDS011;14992;50.844;4.418;2023-11-18T08:26:50;10.18;;;3.78;;
22336;SDS011;14992;50.844;4.418;2023-11-18T08:29:19;10.82;;;3.47;;
22336;SDS011;14992;50.844;4.418;2023-11-18T08:31:49;6.97;;;3.67;;
22336;SDS011;14992;50.844;4.418;2023-11-18T08:34:18;5.68;;;3.25;;
22336;SDS011;14992;50.844;4.418;2023-11-18T08:36:47;7.47;;;3.47;;
22336;SDS011;14992;50.844;4.418;2023-11-18T08:39:18;8.13;;;3.92;;
22336;SDS011;14992;50.844;4.418;2023-11-18T08:41:48;10.02;;;4.15;;
22336;SDS011;14992;50.844;4.418;2023-11-18T08:44:18;6.15;;;3.13;;
22336;SDS011;14992;50.844;4.418;2023-11-18T08:46:52;10.65;;;3.63;;
22336;SDS011;14992;50.844;4.418;2023-11-18T08:49:21;7.63;;;3.38;;
22336;SDS011;14992;50.844;4.418;2023-11-18T08:51:51;8.73;;;3.80;;
22336;SDS011;14992;50.844;4.418;2023-11-18T08:57:04;5.28;;;2.72;;
22336;SDS011;14992;50.844;4.418;2023-11-18T08:59:50;8.40;;;3.22;;
22336;SDS011;14992;50.844;4.418;2023-11-18T09:02:20;6.45;;;3.03;;
22336;SDS011;14992;50.844;4.418;2023-11-18T09:04:50;7.68;;;3.30;;
22336;SDS011;14992;50.844;4.418;2023-11-18T09:07:22;9.18;;;3.42;;
22336;SDS011;14992;50.844;4.418;2023-11-18T09:09:51;10.45;;;3.28;;
22336;SDS011;14992;50.844;4.418;2023-11-18T09:12:20;7.32;;;3.58;;
22336;SDS011;14992;50.844;4.418;2023-11-18T09:14:49;8.73;;;3.08;;
22336;SDS011;14992;50.844;4.418;2023-11-18T09:17:20;7.32;;;3.33;;
22336;SDS011;14992;50.844;4.418;2023-11-18T09:19:50;8.93;;;3.08;;
22336;SDS011;14992;50.844;4.418;2023-11-18T09:22:19;14.15;;;6.03;;
22336;SDS011;14992;50.844;4.418;2023-11-18T09:24:49;5.93;;;2.95;;
22336;SDS011;14992;50.844;4.418;2023-11-18T09:27:18;5.05;;;2.83;;
22336;SDS011;14992;50.844;4.418;2023-11-18T09:29:48;5.88;;;3.03;;
22336;SDS011;14992;50.844;4.418;2023-11-18T09:32:16;5.30;;;3.35;;
22336;SDS011;14992;50.844;4.418;2023-11-18T09:34:47;9.13;;;4.35;;
22336;SDS011;14992;50.844;4.418;2023-11-18T09:37:15;9.32;;;3.13;;
22336;SDS011;14992;50.844;4.418;2023-11-18T09:39:45;4.25;;;2.63;;
22336;SDS011;14992;50.844;4.418;2023-11-18T09:42:19;8.02;;;3.92;;
22336;SDS011;14992;50.844;4.418;2023-11-18T09:44:51;5.60;;;2.85;;
22336;SDS011;14992;50.844;4.418;2023-11-18T09:47:22;5.50;;;2.67;;
22336;SDS011;14992;50.844;4.418;2023-11-18T09:49:56;4.72;;;3.50;;
22336;SDS011;14992;50.844;4.418;2023-11-18T09:52:26;7.00;;;3.35;;
22336;SDS011;14992;50.844;4.418;2023-11-18T09:55:00;7.10;;;3.55;;
22336;SDS011;14992;50.844;4.418;2023-11-18T09:57:32;5.35;;;2.50;;
22336;SDS011;14992;50.844;4.418;2023-11-18T10:00:07;6.30;;;2.78;;
22336;SDS011;14992;50.844;4.418;2023-11-18T10:02:48;5.60;;;3.00;;
22336;SDS011;14992;50.844;4.418;2023-11-18T10:05:20;10.95;;;3.28;;
22336;SDS011;14992;50.844;4.418;2023-11-18T10:07:53;5.07;;;2.90;;
22336;SDS011;14992;50.844;4.418;2023-11-18T10:10:24;6.50;;;2.95;;
22336;SDS011;14992;50.844;4.418;2023-11-18T10:13:03;7.43;;;3.10;;
22336;SDS011;14992;50.844;4.418;2023-11-18T10:18:06;7.25;;;2.42;;
22336;SDS011;14992;50.844;4.418;2023-11-18T10:20:44;7.50;;;3.65;;
22336;SDS011;14992;50.844;4.418;2023-11-18T10:23:14;6.28;;;2.92;;
22336;SDS011;14992;50.844;4.418;2023-11-18T10:25:48;6.05;;;2.85;;
22336;SDS011;14992;50.844;4.418;2023-11-18T10:28:23;6.45;;;3.03;;
22336;SDS011;14992;50.844;4.418;2023-11-18T10:30:55;5.35;;;3.35;;
22336;SDS011;14992;50.844;4.418;2023-11-18T10:33:25;5.13;;;2.67;;
22336;SDS011;14992;50.844;4.418;2023-11-18T10:35:59;6.43;;;2.42;;
22336;SDS011;14992;50.844;4.418;2023-11-18T10:38:31;4.13;;;2.47;;
22336;SDS011;14992;50.844;4.418;2023-11-18T10:43:32;3.72;;;2.38;;
22336;SDS011;14992;50.844;4.418;2023-11-18T10:46:06;5.28;;;2.10;;
22336;SDS011;14992;50.844;4.418;2023-11-18T10:48:39;3.22;;;2.28;;
22336;SDS011;14992;50.844;4.418;2023-11-18T10:51:12;4.10;;;2.63;;
22336;SDS011;14992;50.844;4.418;2023-11-18T10:53:43;6.07;;;2.42;;
22336;SDS011;14992;50.844;4.418;2023-11-18T10:56:20;3.85;;;2.50;;
22336;SDS011;14992;50.844;4.418;2023-11-18T10:58:55;3.08;;;2.28;;
22336;SDS011;14992;50.844;4.418;2023-11-18T11:01:28;2.63;;;2.17;;
22336;SDS011;14992;50.844;4.418;2023-11-18T11:03:59;4.38;;;2.28;;
22336;SDS011;14992;50.844;4.418;2023-11-18T11:06:33;14.40;;;10.57;;
22336;SDS011;14992;50.844;4.418;2023-11-18T11:09:02;4.75;;;2.13;;
22336;SDS011;14992;50.844;4.418;2023-11-18T11:11:39;4.47;;;2.45;;
22336;SDS011;14992;50.844;4.418;2023-11-18T11:14:14;3.38;;;2.15;;
22336;SDS011;14992;50.844;4.418;2023-11-18T11:16:50;3.63;;;1.85;;
22336;SDS011;14992;50.844;4.418;2023-11-18T11:19:24;3.17;;;1.92;;
22336;SDS011;14992;50.844;4.418;2023-11-18T11:22:03;4.15;;;2.10;;
22336;SDS011;14992;50.844;4.418;2023-11-18T11:24:40;4.20;;;2.10;;
22336;SDS011;14992;50.844;4.418;2023-11-18T11:27:22;2.53;;;1.83;;
22336;SDS011;14992;50.844;4.418;2023-11-18T11:30:06;3.83;;;1.33;;
22336;SDS011;14992;50.844;4.418;2023-11-18T11:32:44;4.18;;;1.67;;
22336;SDS011;14992;50.844;4.418;2023-11-18T11:35:20;3.15;;;1.55;;
22336;SDS011;14992;50.844;4.418;2023-11-18T11:37:53;1.52;;;1.08;;
22336;SDS011;14992;50.844;4.418;2023-11-18T11:40:30;2.88;;;1.40;;
22336;SDS011;14992;50.844;4.418;2023-11-18T11:43:02;4.45;;;1.35;;
22336;SDS011;14992;50.844;4.418;2023-11-18T11:45:32;1.55;;;1.10;;
22336;SDS011;14992;50.844;4.418;2023-11-18T11:48:03;4.28;;;1.75;;
22336;SDS011;14992;50.844;4.418;2023-11-18T11:50:48;3.13;;;1.40;;
22336;SDS011;14992;50.844;4.418;2023-11-18T11:56:12;4.25;;;1.25;;
22336;SDS011;14992;50.844;4.418;2023-11-18T11:58:48;2.42;;;1.08;;
22336;SDS011;14992;50.844;4.418;2023-11-18T12:01:25;1.17;;;0.93;;
22336;SDS011;14992;50.844;4.418;2023-11-18T12:03:59;1.17;;;0.95;;
22336;SDS011;14992;50.844;4.418;2023-11-18T12:06:35;1.60;;;1.02;;
22336;SDS011;14992;50.844;4.418;2023-11-18T12:09:10;1.13;;;0.88;;
22336;SDS011;14992;50.844;4.418;2023-11-18T12:11:47;1.75;;;0.95;;
22336;SDS011;14992;50.844;4.418;2023-11-18T12:14:17;1.95;;;1.30;;
22336;SDS011;14992;50.844;4.418;2023-11-18T12:17:00;1.17;;;0.65;;
22336;SDS011;14992;50.844;4.418;2023-11-18T12:19:35;2.17;;;0.90;;
22336;SDS011;14992;50.844;4.418;2023-11-18T12:22:12;1.85;;;1.00;;
22336;SDS011;14992;50.844;4.418;2023-11-18T12:24:46;2.30;;;1.20;;
22336;SDS011;14992;50.844;4.418;2023-11-18T12:28:06;0.93;;;0.63;;
22336;SDS011;14992;50.844;4.418;2023-11-18T12:30:39;0.98;;;0.75;;
22336;SDS011;14992;50.844;4.418;2023-11-18T12:33:25;1.00;;;0.75;;
22336;SDS011;14992;50.844;4.418;2023-11-18T12:39:26;1.77;;;0.90;;
22336;SDS011;14992;50.844;4.418;2023-11-18T12:45:35;2.67;;;1.30;;
22336;SDS011;14992;50.844;4.418;2023-11-18T12:48:14;0.90;;;0.60;;
22336;SDS011;14992;50.844;4.418;2023-11-18T12:50:43;2.40;;;1.40;;
22336;SDS011;14992;50.844;4.418;2023-11-18T12:53:13;2.90;;;1.15;;
22336;SDS011;14992;50.844;4.418;2023-11-18T12:55:45;0.65;;;0.60;;
22336;SDS011;14992;50.844;4.418;2023-11-18T12:58:18;2.45;;;0.80;;
22336;SDS011;14992;50.844;4.418;2023-11-18T13:00:47;1.13;;;0.60;;
22336;SDS011;14992;50.844;4.418;2023-11-18T13:03:16;1.13;;;0.45;;
22336;SDS011;14992;50.844;4.418;2023-11-18T13:05:47;0.73;;;0.60;;
22336;SDS011;14992;50.844;4.418;2023-11-18T13:08:19;1.08;;;0.60;;
22336;SDS011;14992;50.844;4.418;2023-11-18T13:10:49;1.40;;;0.73;;
22336;SDS011;14992;50.844;4.418;2023-11-18T13:13:21;0.80;;;0.52;;
22336;SDS011;14992;50.844;4.418;2023-11-18T13:15:50;0.95;;;0.50;;
22336;SDS011;14992;50.844;4.418;2023-11-18T13:18:19;1.52;;;0.52;;
22336;SDS011;14992;50.844;4.418;2023-11-18T13:20:55;1.20;;;0.52;;
22336;SDS011;14992;50.844;4.418;2023-11-18T13:23:25;0.85;;;0.50;;
22336;SDS011;14992;50.844;4.418;2023-11-18T13:25:55;1.95;;;0.60;;
22336;SDS011;14992;50.844;4.418;2023-11-18T13:30:57;1.17;;;0.32;;
22336;SDS011;14992;50.844;4.418;2023-11-18T13:33:26;0.30;;;0.30;;
22336;SDS011;14992;50.844;4.418;2023-11-18T13:35:55;0.70;;;0.50;;
22336;SDS011;14992;50.844;4.418;2023-11-18T13:38:25;0.70;;;0.60;;
22336;SDS011;14992;50.844;4.418;2023-11-18T13:40:56;1.10;;;0.55;;
22336;SDS011;14992;50.844;4.418;2023-11-18T13:43:25;1.63;;;0.55;;
22336;SDS011;14992;50.844;4.418;2023-11-18T13:45:55;0.93;;;0.60;;
22336;SDS011;14992;50.844;4.418;2023-11-18T13:48:27;1.20;;;0.60;;
22336;SDS011;14992;50.844;4.418;2023-11-18T13:50:56;2.80;;;0.57;;
22336;SDS011;14992;50.844;4.418;2023-11-18T13:53:25;0.60;;;0.50;;
22336;SDS011;14992;50.844;4.418;2023-11-18T13:55:54;1.88;;;1.35;;
22336;SDS011;14992;50.844;4.418;2023-11-18T13:58:23;0.32;;;0.32;;
22336;SDS011;14992;50.844;4.418;2023-11-18T14:00:52;0.60;;;0.52;;
22336;SDS011;14992;50.844;4.418;2023-11-18T14:03:22;1.00;;;0.55;;
22336;SDS011;14992;50.844;4.418;2023-11-18T14:05:51;0.88;;;0.50;;
22336;SDS011;14992;50.844;4.418;2023-11-18T14:08:22;1.13;;;0.60;;
22336;SDS011;14992;50.844;4.418;2023-11-18T14:10:51;1.13;;;0.57;;
22336;SDS011;14992;50.844;4.418;2023-11-18T14:13:29;1.17;;;0.73;;
22336;SDS011;14992;50.844;4.418;2023-11-18T14:15:59;0.75;;;0.52;;
22336;SDS011;14992;50.844;4.418;2023-11-18T14:18:30;0.60;;;0.52;;
22336;SDS011;14992;50.844;4.418;2023-11-18T14:20:59;0.82;;;0.70;;
22336;SDS011;14992;50.844;4.418;2023-11-18T14:23:27;1.33;;;0.98;;
22336;SDS011;14992;50.844;4.418;2023-11-18T14:25:56;0.80;;;0.52;;
22336;SDS011;14992;50.844;4.418;2023-11-18T14:28:26;1.13;;;0.63;;
22336;SDS011;14992;50.844;4.418;2023-11-18T14:30:56;1.15;;;0.60;;
22336;SDS011;14992;50.844;4.418;2023-11-18T14:33:24;0.98;;;0.47;;
22336;SDS011;14992;50.844;4.418;2023-11-18T14:35:56;0.50;;;0.43;;
22336;SDS011;14992;50.844;4.418;2023-11-18T14:38:25;0.85;;;0.63;;
22336;SDS011;14992;50.844;4.418;2023-11-18T14:40:54;0.70;;;0.50;;
22336;SDS011;14992;50.844;4.418;2023-11-18T14:43:23;1.13;;;0.90;;
22336;SDS011;14992;50.844;4.418;2023-11-18T14:45:52;0.70;;;0.65;;
22336;SDS011;14992;50.844;4.418;2023-11-18T14:48:21;0.93;;;0.60;;
22336;SDS011;14992;50.844;4.418;2023-11-18T14:50:50;0.73;;;0.63;;
22336;SDS011;14992;50.844;4.418;2023-11-18T14:53:20;1.15;;;0.70;;
22336;SDS011;14992;50.844;4.418;2023-11-18T14:55:49;2.15;;;0.73;;
22336;SDS011;14992;50.844;4.418;2023-11-18T14:58:18;1.05;;;0.98;;
22336;SDS011;14992;50.844;4.418;2023-11-18T15:00:47;0.57;;;0.52;;
22336;SDS011;14992;50.844;4.418;2023-11-18T15:03:15;1.10;;;0.75;;
22336;SDS011;14992;50.844;4.418;2023-11-18T15:05:45;1.40;;;1.13;;
22336;SDS011;14992;50.844;4.418;2023-11-18T15:08:13;1.63;;;0.73;;
22336;SDS011;14992;50.844;4.418;2023-11-18T15:10:44;1.38;;;0.60;;
22336;SDS011;14992;50.844;4.418;2023-11-18T15:13:13;0.82;;;0.65;;
22336;SDS011;14992;50.844;4.418;2023-11-18T15:15:44;1.10;;;0.70;;
22336;SDS011;14992;50.844;4.418;2023-11-18T15:18:14;1.85;;;0.52;;
22336;SDS011;14992;50.844;4.418;2023-11-18T15:20:45;0.57;;;0.57;;
22336;SDS011;14992;50.844;4.418;2023-11-18T15:23:15;0.95;;;0.50;;
22336;SDS011;14992;50.844;4.418;2023-11-18T15:25:47;0.63;;;0.43;;
22336;SDS011;14992;50.844;4.418;2023-11-18T15:28:17;2.67;;;1.10;;